createdAt,value
2018-11-04T00:00:24.885Z,6.10
2018-11-04T00:02:53.109Z,6.10
2018-11-04T00:05:21.313Z,6.10
2018-11-04T00:07:50.619Z,6.00
2018-11-04T00:10:18.734Z,6.00
2018-11-04T00:12:46.914Z,6.00
2018-11-04T00:15:15.087Z,6.00
2018-11-04T00:17:43.253Z,6.00
2018-11-04T00:20:13.729Z,6.00
2018-11-04T00:22:41.874Z,6.00
2018-11-04T00:25:11.882Z,6.00
2018-11-04T00:27:40.088Z,6.00
2018-11-04T00:30:10.478Z,6.00
2018-11-04T00:32:38.709Z,6.00
2018-11-04T00:35:07.272Z,6.00
2018-11-04T00:37:35.473Z,6.00
2018-11-04T00:40:03.642Z,6.00
2018-11-04T00:42:31.830Z,6.00
2018-11-04T00:45:00.987Z,6.00
2018-11-04T00:47:29.230Z,6.00
2018-11-04T00:49:57.422Z,6.00
2018-11-04T00:52:25.606Z,6.00
2018-11-04T00:54:53.787Z,6.00
2018-11-04T00:57:21.951Z,6.00
2018-11-04T00:59:50.184Z,6.00
2018-11-04T01:02:18.347Z,6.00
2018-11-04T01:04:46.532Z,6.00
2018-11-04T01:07:14.706Z,6.00
2018-11-04T01:09:42.897Z,6.00
2018-11-04T01:12:11.068Z,6.00
2018-11-04T01:14:39.251Z,6.00
2018-11-04T01:17:07.414Z,6.00
2018-11-04T01:19:35.597Z,6.00
2018-11-04T01:22:03.782Z,6.00
2018-11-04T01:24:31.980Z,6.00
2018-11-04T01:27:00.162Z,6.00
2018-11-04T01:29:28.391Z,6.00
2018-11-04T01:31:56.559Z,6.00
2018-11-04T01:34:24.738Z,6.00
2018-11-04T01:36:52.922Z,6.00
2018-11-04T01:39:21.085Z,6.00
2018-11-04T01:41:49.265Z,6.00
2018-11-04T01:44:17.425Z,6.00
2018-11-04T01:46:45.615Z,6.00
2018-11-04T01:49:13.794Z,5.90
2018-11-04T01:51:41.974Z,6.00
2018-11-04T01:54:10.144Z,5.90
2018-11-04T01:56:38.327Z,6.00
2018-11-04T01:59:06.790Z,6.00
2018-11-04T02:01:35.004Z,6.00
2018-11-04T02:04:03.175Z,6.00
2018-11-04T02:06:31.363Z,6.00
2018-11-04T02:08:59.530Z,6.00
2018-11-04T02:11:27.710Z,6.00
2018-11-04T02:13:55.958Z,6.00
2018-11-04T02:16:24.143Z,6.00
2018-11-04T02:18:52.324Z,6.00
2018-11-04T02:21:20.537Z,6.00
2018-11-04T02:23:48.728Z,5.90
2018-11-04T02:26:16.914Z,5.90
2018-11-04T02:28:45.094Z,5.90
2018-11-04T02:31:13.295Z,5.90
2018-11-04T02:33:41.515Z,5.90
2018-11-04T02:36:09.734Z,5.90
2018-11-04T02:38:37.908Z,5.90
2018-11-04T02:41:06.661Z,5.90
2018-11-04T02:43:34.839Z,5.80
2018-11-04T02:46:03.070Z,5.80
2018-11-04T02:48:31.248Z,5.80
2018-11-04T02:50:59.420Z,5.80
2018-11-04T02:53:27.626Z,5.80
2018-11-04T02:55:55.796Z,5.70
2018-11-04T02:58:23.958Z,5.70
2018-11-04T03:00:52.143Z,5.70
2018-11-04T03:03:20.315Z,5.70
2018-11-04T03:05:48.495Z,5.70
2018-11-04T03:08:16.663Z,5.70
2018-11-04T03:10:44.838Z,5.70
2018-11-04T03:13:13.011Z,5.70
2018-11-04T03:15:41.190Z,5.70
2018-11-04T03:18:09.383Z,5.70
2018-11-04T03:20:37.652Z,5.60
2018-11-04T03:23:05.863Z,5.70
2018-11-04T03:25:34.051Z,5.70
2018-11-04T03:28:02.223Z,5.70
2018-11-04T03:30:30.412Z,5.60
2018-11-04T03:32:58.583Z,5.60
2018-11-04T03:35:26.755Z,5.60
2018-11-04T03:37:54.925Z,5.60
2018-11-04T03:40:23.100Z,5.60
2018-11-04T03:42:51.256Z,5.50
2018-11-04T03:45:19.471Z,5.50
2018-11-04T03:47:47.646Z,5.50
2018-11-04T03:50:15.817Z,5.50
2018-11-04T03:52:43.973Z,5.50
2018-11-04T03:55:12.185Z,5.40
2018-11-04T03:57:40.346Z,5.50
2018-11-04T04:00:10.815Z,5.50
2018-11-04T04:02:39.099Z,5.50
2018-11-04T04:05:08.048Z,5.50
2018-11-04T04:07:36.240Z,5.50
2018-11-04T04:10:05.278Z,5.50
2018-11-04T04:12:33.414Z,5.50
2018-11-04T04:15:01.567Z,5.50
2018-11-04T04:17:29.779Z,5.50
2018-11-04T04:19:57.955Z,5.40
2018-11-04T04:22:26.112Z,5.40
2018-11-04T04:24:54.253Z,5.40
2018-11-04T04:27:22.390Z,5.40
2018-11-04T04:29:50.598Z,5.40
2018-11-04T04:32:18.731Z,5.40
2018-11-04T04:34:46.911Z,5.40
2018-11-04T04:37:15.014Z,5.40
2018-11-04T04:39:43.135Z,5.40
2018-11-04T04:42:11.279Z,5.40
2018-11-04T04:44:39.395Z,5.40
2018-11-04T04:47:07.559Z,5.40
2018-11-04T04:49:35.703Z,5.40
2018-11-04T04:52:03.870Z,5.40
2018-11-04T04:54:32.063Z,5.50
2018-11-04T04:57:00.210Z,5.50
2018-11-04T04:59:28.439Z,5.50
2018-11-04T05:01:56.687Z,5.40
2018-11-04T05:04:24.844Z,5.50
2018-11-04T05:06:52.970Z,5.50
2018-11-04T05:09:21.141Z,5.50
2018-11-04T05:11:49.266Z,5.50
2018-11-04T05:14:17.479Z,5.50
2018-11-04T05:16:45.591Z,5.50
2018-11-04T05:19:13.735Z,5.50
2018-11-04T05:21:41.872Z,5.50
2018-11-04T05:24:10.037Z,5.50
2018-11-04T05:26:38.250Z,5.50
2018-11-04T05:29:06.416Z,5.60
2018-11-04T05:31:34.535Z,5.60
2018-11-04T05:34:02.759Z,5.60
2018-11-04T05:36:30.990Z,5.60
2018-11-04T05:38:59.122Z,5.60
2018-11-04T05:41:27.268Z,5.60
2018-11-04T05:43:55.420Z,5.60
2018-11-04T05:46:23.597Z,5.70
2018-11-04T05:48:51.789Z,5.70
2018-11-04T05:51:19.962Z,5.60
2018-11-04T05:53:48.093Z,5.70
2018-11-04T05:56:16.251Z,5.70
2018-11-04T05:58:44.402Z,5.70
2018-11-04T06:01:12.569Z,5.80
2018-11-04T06:03:40.743Z,5.80
2018-11-04T06:06:08.928Z,5.80
2018-11-04T06:08:37.091Z,5.80
2018-11-04T06:11:05.443Z,5.90
2018-11-04T06:13:33.590Z,5.90
2018-11-04T06:16:01.748Z,5.90
2018-11-04T06:18:29.910Z,6.00
2018-11-04T06:20:58.054Z,6.00
2018-11-04T06:23:26.307Z,6.10
2018-11-04T06:25:54.444Z,6.10
2018-11-04T06:28:22.608Z,6.20
2018-11-04T06:30:50.758Z,6.20
2018-11-04T06:33:18.950Z,6.20
2018-11-04T06:35:47.152Z,6.30
2018-11-04T06:38:15.299Z,6.30
2018-11-04T06:40:43.442Z,6.30
2018-11-04T06:43:11.666Z,6.40
2018-11-04T06:45:39.803Z,6.40
2018-11-04T06:48:07.950Z,6.50
2018-11-04T06:50:36.090Z,6.50
2018-11-04T06:53:04.550Z,6.50
2018-11-04T06:55:32.702Z,6.60
2018-11-04T06:58:00.916Z,6.60
2018-11-04T07:00:29.050Z,6.60
2018-11-04T07:02:57.215Z,6.70
2018-11-04T07:05:25.378Z,6.70
2018-11-04T07:07:53.546Z,6.80
2018-11-04T07:10:21.690Z,6.80
2018-11-04T07:12:49.826Z,6.80
2018-11-04T07:15:17.979Z,6.90
2018-11-04T07:17:46.120Z,6.90
2018-11-04T07:20:14.286Z,7.00
2018-11-04T07:22:42.467Z,7.00
2018-11-04T07:25:10.625Z,7.00
2018-11-04T07:27:38.770Z,7.10
2018-11-04T07:30:08.352Z,7.10
2018-11-04T07:32:36.495Z,7.20
2018-11-04T07:35:04.934Z,7.20
2018-11-04T07:37:33.073Z,7.30
2018-11-04T07:40:01.231Z,7.30
2018-11-04T07:42:29.376Z,7.30
2018-11-04T07:44:57.527Z,7.40
2018-11-04T07:47:25.759Z,7.40
2018-11-04T07:49:53.910Z,7.50
2018-11-04T07:52:22.054Z,7.50
2018-11-04T07:54:50.206Z,7.50
2018-11-04T07:57:18.348Z,7.60
2018-11-04T07:59:46.497Z,7.60
2018-11-04T08:02:14.657Z,7.70
2018-11-04T08:04:42.835Z,7.70
2018-11-04T08:07:10.983Z,7.70
2018-11-04T08:09:39.148Z,7.80
2018-11-04T08:12:07.354Z,7.90
2018-11-04T08:14:35.546Z,7.90
2018-11-04T08:17:03.790Z,7.90
2018-11-04T08:19:32.224Z,8.00
2018-11-04T08:22:00.386Z,8.00
2018-11-04T08:24:28.591Z,8.00
2018-11-04T08:26:56.731Z,8.10
2018-11-04T08:29:24.910Z,8.10
2018-11-04T08:31:53.050Z,8.20
2018-11-04T08:34:21.239Z,8.30
2018-11-04T08:36:49.379Z,8.30
2018-11-04T08:39:17.648Z,8.40
2018-11-04T08:41:45.834Z,8.50
2018-11-04T08:44:14.034Z,8.60
2018-11-04T08:46:42.231Z,8.60
2018-11-04T08:49:10.374Z,8.80
2018-11-04T08:51:38.599Z,8.90
2018-11-04T08:54:06.742Z,9.00
2018-11-04T08:56:34.915Z,9.20
2018-11-04T08:59:03.092Z,9.40
2018-11-04T09:01:31.195Z,9.50
2018-11-04T09:03:59.375Z,9.50
2018-11-04T09:06:27.520Z,9.60
2018-11-04T09:08:56.014Z,9.60
2018-11-04T09:11:24.185Z,9.60
2018-11-04T09:13:52.368Z,9.60
2018-11-04T09:16:20.490Z,9.60
2018-11-04T09:18:48.633Z,9.60
2018-11-04T09:21:16.792Z,9.50
2018-11-04T09:23:45.053Z,9.50
2018-11-04T09:26:13.167Z,9.50
2018-11-04T09:28:41.418Z,9.50
2018-11-04T09:31:09.740Z,9.50
2018-11-04T09:33:38.255Z,9.40
2018-11-04T09:36:06.492Z,9.40
2018-11-04T09:38:34.545Z,9.50
2018-11-04T09:41:02.700Z,9.50
2018-11-04T09:43:31.206Z,9.40
2018-11-04T09:45:59.447Z,9.50
2018-11-04T09:48:27.570Z,9.50
2018-11-04T09:50:55.715Z,9.50
2018-11-04T09:53:23.860Z,9.50
2018-11-04T09:55:52.027Z,9.50
2018-11-04T09:58:20.182Z,9.50
2018-11-04T10:00:48.441Z,9.60
2018-11-04T10:03:16.574Z,9.60
2018-11-04T10:05:44.783Z,9.60
2018-11-04T10:08:12.943Z,9.60
2018-11-04T10:10:41.181Z,9.60
2018-11-04T10:13:09.359Z,9.70
2018-11-04T10:15:37.831Z,9.70
2018-11-04T10:18:05.974Z,9.70
2018-11-04T10:20:34.540Z,9.80
2018-11-04T10:23:02.302Z,9.80
2018-11-04T10:25:30.533Z,9.80
2018-11-04T10:27:58.740Z,9.80
2018-11-04T10:30:26.882Z,9.80
2018-11-04T10:32:55.080Z,9.90
2018-11-04T10:35:23.223Z,9.90
2018-11-04T10:37:51.438Z,9.90
2018-11-04T10:40:19.639Z,10.00
2018-11-04T10:42:47.845Z,10.00
2018-11-04T10:45:16.058Z,10.00
2018-11-04T10:47:44.242Z,10.10
2018-11-04T10:50:13.035Z,10.10
2018-11-04T10:52:41.391Z,10.10
2018-11-04T10:55:10.429Z,10.20
2018-11-04T10:57:38.659Z,10.20
2018-11-04T11:00:12.942Z,10.30
2018-11-04T11:02:41.151Z,10.30
2018-11-04T11:05:09.397Z,10.30
2018-11-04T11:07:37.718Z,10.40
2018-11-04T11:10:06.991Z,10.40
2018-11-04T11:12:35.151Z,10.40
2018-11-04T11:15:03.350Z,10.50
2018-11-04T11:17:31.735Z,10.50
2018-11-04T11:19:59.883Z,10.50
2018-11-04T11:22:28.199Z,10.60
2018-11-04T11:24:56.377Z,10.60
2018-11-04T11:27:24.523Z,10.60
2018-11-04T11:29:52.741Z,10.70
2018-11-04T11:32:20.905Z,10.70
2018-11-04T11:34:49.068Z,10.80
2018-11-04T11:37:17.291Z,10.80
2018-11-04T11:39:45.395Z,10.80
2018-11-04T11:42:13.567Z,10.80
2018-11-04T11:44:42.706Z,10.90
2018-11-04T11:47:10.875Z,10.90
2018-11-04T11:49:39.466Z,11.00
2018-11-04T11:52:07.622Z,11.00
2018-11-04T11:54:35.790Z,11.00
2018-11-04T11:57:03.954Z,11.10
2018-11-04T11:59:32.111Z,11.10
2018-11-04T12:02:00.304Z,11.10
2018-11-04T12:04:28.480Z,11.20
2018-11-04T12:06:56.663Z,11.20
2018-11-04T12:09:24.827Z,11.20
2018-11-04T12:11:53.006Z,11.20
2018-11-04T12:14:21.179Z,11.30
2018-11-04T12:16:49.406Z,11.30
2018-11-04T12:19:17.542Z,11.40
2018-11-04T12:21:45.802Z,11.40
2018-11-04T12:24:14.027Z,11.40
2018-11-04T12:26:42.186Z,11.40
2018-11-04T12:29:10.384Z,11.50
2018-11-04T12:31:38.575Z,11.50
2018-11-04T12:34:06.843Z,11.50
2018-11-04T12:36:35.015Z,11.60
2018-11-04T12:39:03.566Z,11.60
2018-11-04T12:41:31.736Z,11.60
2018-11-04T12:43:59.880Z,11.70
2018-11-04T12:46:28.110Z,11.70
2018-11-04T12:48:56.252Z,11.80
2018-11-04T12:51:24.474Z,11.80
2018-11-04T12:53:52.625Z,11.80
2018-11-04T12:56:20.784Z,11.80
2018-11-04T12:58:48.926Z,11.90
2018-11-04T13:01:17.122Z,11.90
2018-11-04T13:03:45.298Z,11.90
2018-11-04T13:06:13.499Z,12.00
2018-11-04T13:08:41.669Z,12.00
2018-11-04T13:11:09.860Z,12.00
2018-11-04T13:13:38.042Z,12.10
2018-11-04T13:16:06.243Z,12.10
2018-11-04T13:18:34.410Z,12.10
2018-11-04T13:21:02.633Z,12.10
2018-11-04T13:23:30.847Z,12.20
2018-11-04T13:25:59.030Z,12.20
2018-11-04T13:28:27.186Z,12.20
2018-11-04T13:30:55.342Z,12.20
2018-11-04T13:33:23.526Z,12.20
2018-11-04T13:35:51.746Z,12.30
2018-11-04T13:38:19.857Z,12.30
2018-11-04T13:40:48.026Z,12.30
2018-11-04T13:43:16.237Z,12.40
2018-11-04T13:45:44.417Z,12.40
2018-11-04T13:48:12.566Z,12.40
2018-11-04T13:50:40.744Z,12.40
2018-11-04T13:53:08.938Z,12.40
2018-11-04T13:55:37.180Z,12.40
2018-11-04T13:58:05.461Z,12.50
2018-11-04T14:00:33.657Z,12.40
2018-11-04T14:03:01.900Z,12.50
2018-11-04T14:05:29.990Z,12.50
2018-11-04T14:07:58.174Z,12.50
2018-11-04T14:10:26.341Z,12.50
2018-11-04T14:12:54.560Z,12.50
2018-11-04T14:15:22.674Z,12.60
2018-11-04T14:17:50.946Z,12.60
2018-11-04T14:20:19.110Z,12.60
2018-11-04T14:22:47.275Z,12.60
2018-11-04T14:25:15.427Z,12.60
2018-11-04T14:27:43.596Z,12.60
2018-11-04T14:30:14.399Z,12.60
2018-11-04T14:32:42.923Z,12.60
2018-11-04T14:35:11.729Z,12.70
2018-11-04T14:37:40.911Z,12.70
2018-11-04T14:40:11.210Z,12.70
2018-11-04T14:42:40.222Z,12.70
2018-11-04T14:45:08.462Z,12.70
2018-11-04T14:47:37.078Z,12.70
2018-11-04T14:50:07.895Z,12.70
2018-11-04T14:52:36.119Z,12.70
2018-11-04T14:55:05.046Z,12.70
2018-11-04T14:57:33.247Z,12.70
2018-11-04T15:00:01.411Z,12.70
2018-11-04T15:02:29.629Z,12.70
2018-11-04T15:04:57.852Z,12.70
2018-11-04T15:07:26.035Z,12.70
2018-11-04T15:09:54.232Z,12.70
2018-11-04T15:12:22.391Z,12.70
2018-11-04T15:14:50.542Z,12.70
2018-11-04T15:17:18.702Z,12.70
2018-11-04T15:19:46.870Z,12.70
2018-11-04T15:22:15.044Z,12.70
2018-11-04T15:24:43.315Z,12.70
2018-11-04T15:27:11.418Z,12.70
2018-11-04T15:29:39.587Z,12.70
2018-11-04T15:32:07.766Z,12.60
2018-11-04T15:34:36.034Z,12.70
2018-11-04T15:37:04.107Z,12.60
2018-11-04T15:39:32.295Z,12.60
2018-11-04T15:42:00.455Z,12.60
2018-11-04T15:44:28.606Z,12.60
2018-11-04T15:46:56.754Z,12.60
2018-11-04T15:49:24.942Z,12.50
2018-11-04T15:51:53.135Z,12.60
2018-11-04T15:54:21.288Z,12.50
2018-11-04T15:56:49.435Z,12.50
2018-11-04T15:59:17.630Z,12.40
2018-11-04T16:01:45.808Z,12.40
2018-11-04T16:04:14.030Z,12.40
2018-11-04T16:06:42.147Z,12.40
2018-11-04T16:09:10.370Z,12.40
2018-11-04T16:11:38.515Z,12.40
2018-11-04T16:14:06.660Z,12.30
2018-11-04T16:16:34.819Z,12.30
2018-11-04T16:19:03.021Z,12.30
2018-11-04T16:21:31.175Z,12.30
2018-11-04T16:23:59.459Z,12.30
2018-11-04T16:26:27.607Z,12.30
2018-11-04T16:28:55.842Z,12.30
2018-11-04T16:31:24.019Z,12.30
2018-11-04T16:33:52.223Z,12.30
2018-11-04T16:36:20.387Z,12.30
2018-11-04T16:38:48.558Z,12.30
2018-11-04T16:41:16.744Z,12.30
2018-11-04T16:43:44.898Z,12.30
2018-11-04T16:46:13.066Z,12.30
2018-11-04T16:48:41.214Z,12.30
2018-11-04T16:51:09.383Z,12.30
2018-11-04T16:53:37.533Z,12.30
2018-11-04T16:56:06.072Z,12.30
2018-11-04T16:58:34.200Z,12.30
2018-11-04T17:01:02.351Z,12.40
2018-11-04T17:03:30.539Z,12.40
2018-11-04T17:05:58.715Z,12.40
2018-11-04T17:08:26.866Z,12.40
2018-11-04T17:10:55.039Z,12.40
2018-11-04T17:13:23.211Z,12.40
2018-11-04T17:15:51.406Z,12.40
2018-11-04T17:18:19.596Z,12.40
2018-11-04T17:20:47.711Z,12.40
2018-11-04T17:23:15.890Z,12.40
2018-11-04T17:25:44.046Z,12.40
2018-11-04T17:28:12.191Z,12.40
2018-11-04T17:30:40.351Z,12.40
2018-11-04T17:33:08.508Z,12.40
2018-11-04T17:35:36.655Z,12.40
2018-11-04T17:38:04.895Z,12.40
2018-11-04T17:40:33.034Z,12.40
2018-11-04T17:43:01.195Z,12.40
2018-11-04T17:45:29.357Z,12.40
2018-11-04T17:47:58.638Z,12.40
2018-11-04T17:50:26.771Z,12.40
2018-11-04T17:52:54.982Z,12.40
2018-11-04T17:55:23.138Z,12.40
2018-11-04T17:57:51.312Z,12.40
2018-11-04T18:00:19.523Z,12.40
2018-11-04T18:02:47.687Z,12.50
2018-11-04T18:05:15.940Z,12.40
2018-11-04T18:07:44.398Z,12.40
2018-11-04T18:10:13.321Z,12.40
2018-11-04T18:12:41.541Z,12.50
2018-11-04T18:15:10.431Z,12.50
2018-11-04T18:17:38.604Z,12.50
2018-11-04T18:20:07.931Z,12.50
2018-11-04T18:22:36.158Z,12.50
2018-11-04T18:25:04.548Z,12.50
2018-11-04T18:27:32.703Z,12.50
2018-11-04T18:30:00.886Z,12.50
2018-11-04T18:32:29.051Z,12.50
2018-11-04T18:34:57.211Z,12.50
2018-11-04T18:37:25.411Z,12.50
2018-11-04T18:39:53.578Z,12.50
2018-11-04T18:42:21.746Z,12.50
2018-11-04T18:44:49.925Z,12.50
2018-11-04T18:47:18.079Z,12.50
2018-11-04T18:49:46.269Z,12.50
2018-11-04T18:52:14.460Z,12.50
2018-11-04T18:54:42.582Z,12.50
2018-11-04T18:57:10.730Z,12.50
2018-11-04T18:59:38.883Z,12.50
2018-11-04T19:02:07.026Z,12.60
2018-11-04T19:04:35.195Z,12.50
2018-11-04T19:07:03.391Z,12.50
2018-11-04T19:09:31.543Z,12.60
2018-11-04T19:11:59.728Z,12.50
2018-11-04T19:14:27.890Z,12.50
2018-11-04T19:16:56.047Z,12.50
2018-11-04T19:19:24.219Z,12.60
2018-11-04T19:21:52.359Z,12.60
2018-11-04T19:24:20.525Z,12.60
2018-11-04T19:26:48.703Z,12.60
2018-11-04T19:29:16.870Z,12.60
2018-11-04T19:31:45.054Z,12.60
2018-11-04T19:34:13.201Z,12.60
2018-11-04T19:36:41.359Z,12.60
2018-11-04T19:39:10.708Z,12.60
2018-11-04T19:41:38.996Z,12.60
2018-11-04T19:44:07.226Z,12.60
2018-11-04T19:46:35.634Z,12.60
2018-11-04T19:49:03.772Z,12.60
2018-11-04T19:51:31.944Z,12.60
2018-11-04T19:54:00.106Z,12.60
2018-11-04T19:56:28.312Z,12.60
2018-11-04T19:58:56.486Z,12.60
2018-11-04T20:01:24.583Z,12.50
2018-11-04T20:03:52.724Z,12.60
2018-11-04T20:06:20.954Z,12.50
2018-11-04T20:08:54.567Z,12.60
2018-11-04T20:11:22.738Z,12.60
2018-11-04T20:13:56.398Z,12.60
2018-11-04T20:16:24.559Z,12.60
2018-11-04T20:18:58.426Z,12.60
2018-11-04T20:21:26.585Z,12.60
2018-11-04T20:23:54.759Z,12.60
2018-11-04T20:26:22.932Z,12.60
2018-11-04T20:28:51.096Z,12.50
2018-11-04T20:31:24.494Z,12.50
2018-11-04T20:33:52.668Z,12.60
2018-11-04T20:36:20.773Z,12.60
2018-11-04T20:38:54.450Z,12.60
2018-11-04T20:41:30.544Z,12.60
2018-11-04T20:43:58.986Z,12.60
2018-11-04T20:46:27.124Z,12.60
2018-11-04T20:49:00.783Z,12.60
2018-11-04T20:51:29.006Z,12.60
2018-11-04T20:53:57.129Z,12.60
2018-11-04T20:56:30.675Z,12.60
2018-11-04T20:58:58.842Z,12.60
2018-11-04T21:01:26.992Z,12.60
2018-11-04T21:03:55.274Z,12.50
2018-11-04T21:06:23.431Z,12.60
2018-11-04T21:08:51.579Z,12.60
2018-11-04T21:11:19.720Z,12.60
2018-11-04T21:13:47.878Z,12.50
2018-11-04T21:16:16.043Z,12.50
2018-11-04T21:18:44.182Z,12.50
2018-11-04T21:21:12.324Z,12.50
2018-11-04T21:23:40.484Z,12.50
2018-11-04T21:26:08.858Z,12.50
2018-11-04T21:28:37.184Z,12.50
2018-11-04T21:31:05.220Z,12.50
2018-11-04T21:33:33.355Z,12.50
2018-11-04T21:36:01.520Z,12.50
2018-11-04T21:38:29.724Z,12.50
2018-11-04T21:40:57.960Z,12.40
2018-11-04T21:43:26.415Z,12.40
2018-11-04T21:45:54.250Z,12.40
2018-11-04T21:48:22.413Z,12.30
2018-11-04T21:50:50.566Z,12.30
2018-11-04T21:53:18.720Z,12.30
2018-11-04T21:55:47.207Z,12.20
2018-11-04T21:58:15.958Z,12.20
2018-11-04T22:00:44.094Z,12.20
2018-11-04T22:03:12.408Z,12.10
2018-11-04T22:05:40.430Z,12.10
2018-11-04T22:08:08.599Z,12.00
2018-11-04T22:10:36.817Z,12.00
2018-11-04T22:13:05.059Z,11.90
2018-11-04T22:15:33.202Z,11.90
2018-11-04T22:18:01.381Z,11.80
2018-11-04T22:20:29.532Z,11.80
2018-11-04T22:22:57.683Z,11.70
2018-11-04T22:25:26.190Z,11.70
2018-11-04T22:27:54.358Z,11.60
2018-11-04T22:30:22.498Z,11.60
2018-11-04T22:32:50.649Z,11.50
2018-11-04T22:35:18.836Z,11.50
2018-11-04T22:37:47.006Z,11.40
2018-11-04T22:40:15.248Z,11.40
2018-11-04T22:42:43.380Z,11.30
2018-11-04T22:45:12.370Z,11.30
2018-11-04T22:47:41.354Z,11.20
2018-11-04T22:50:11.914Z,11.20
2018-11-04T22:52:40.667Z,11.20
2018-11-04T22:55:08.831Z,11.20
2018-11-04T22:57:36.995Z,11.20
2018-11-04T23:00:06.191Z,11.10
2018-11-04T23:02:34.334Z,11.10
2018-11-04T23:05:08.029Z,11.00
2018-11-04T23:07:36.176Z,11.00
2018-11-04T23:10:05.151Z,10.90
2018-11-04T23:12:33.301Z,10.90
2018-11-04T23:15:01.487Z,10.90
2018-11-04T23:17:29.636Z,10.80
2018-11-04T23:19:57.790Z,10.80
2018-11-04T23:22:25.977Z,10.80
2018-11-04T23:24:54.166Z,10.70
2018-11-04T23:27:22.326Z,10.70
2018-11-04T23:29:50.487Z,10.70
2018-11-04T23:32:18.679Z,10.70
2018-11-04T23:34:46.831Z,10.70
2018-11-04T23:37:14.978Z,10.60
2018-11-04T23:39:43.137Z,10.60
2018-11-04T23:42:11.323Z,10.60
2018-11-04T23:44:39.478Z,10.60
2018-11-04T23:47:07.639Z,10.60
2018-11-04T23:49:35.788Z,10.60
2018-11-04T23:52:04.016Z,10.50
2018-11-04T23:54:32.192Z,10.50
2018-11-04T23:57:00.439Z,10.50
2018-11-04T23:59:28.610Z,10.50
